Time;durP1;ratioP1;P1;durP2;ratioP2;P2;SDS_P1;SDS_P2;PMS_P1;PMS_P2;Temp;Humidity;BMP_temperature;BMP_pressure;BME280_temperature;BME280_humidity;BME280_pressure;Samples;Min_cycle;Max_cycle;Signal;HPM_P1;HPM_P2
2023/03/05 00:01:36;;;;;;;;;;;5.80;99.90;;;;;;6214091;23;19961;-86
2023/03/05 00:04:03;;;;;;;;;;;6.80;99.90;;;;;;6214860;23;19945;-85
2023/03/05 00:06:29;;;;;;;;;;;5.70;99.90;;;;;;6214867;23;19911;-85
2023/03/05 00:08:58;;;;;;;;;;;5.90;99.90;;;;;;6242924;23;20415;-86
2023/03/05 00:11:24;;;;;;;;;;;5.00;99.90;;;;;;6242755;23;20325;-85
2023/03/05 00:13:51;;;;;;;;;;;6.40;99.90;;;;;;6242773;23;19899;-86
2023/03/05 00:16:16;;;;;;;;;;;6.80;99.90;;;;;;6215693;23;20241;-86
2023/03/05 00:18:42;;;;;;;;;;;7.40;99.90;;;;;;6242660;23;19903;-86
2023/03/05 00:21:16;;;;;;;;;;;5.20;99.90;;;;;;6242730;23;20359;-85
2023/03/05 00:23:42;;;;;;;;;;;5.90;99.90;;;;;;6242945;23;19953;-85
2023/03/05 00:26:08;;;;;;;;;;;5.60;99.90;;;;;;6242695;23;20287;-86
2023/03/05 00:28:34;;;;;;;;;;;5.80;99.90;;;;;;6216361;23;19906;-85
2023/03/05 00:31:00;;;;;;;;;;;5.40;99.90;;;;;;6242685;23;19978;-85
2023/03/05 00:33:26;;;;;;;;;;;7.00;99.90;;;;;;6241800;23;20144;-86
2023/03/05 00:35:51;;;;;;;;;;;6.70;99.90;;;;;;6242439;23;20328;-85
2023/03/05 00:38:17;;;;;;;;;;;5.50;99.90;;;;;;6242647;23;19899;-86
2023/03/05 00:40:42;;;;;;;;;;;5.40;99.90;;;;;;6242545;23;19978;-85
2023/03/05 00:43:08;;;;;;;;;;;7.10;99.90;;;;;;6215294;23;19903;-85
2023/03/05 00:45:33;;;;;;;;;;;7.60;99.90;;;;;;6242839;23;19918;-86
2023/03/05 00:47:59;;;;;;;;;;;7.30;99.90;;;;;;6242044;23;19899;-85
2023/03/05 00:50:25;;;;;;;;;;;5.70;99.90;;;;;;6241874;23;19900;-85
2023/03/05 00:52:50;;;;;;;;;;;5.30;99.90;;;;;;6242431;23;19921;-86
2023/03/05 00:55:16;;;;;;;;;;;5.80;99.90;;;;;;6241203;23;19904;-86
2023/03/05 00:57:41;;;;;;;;;;;5.00;99.90;;;;;;6242100;23;19900;-86
2023/03/05 01:00:08;;;;;;;;;;;7.60;99.90;;;;;;6216292;23;19910;-86
2023/03/05 01:02:33;;;;;;;;;;;5.70;99.90;;;;;;6215398;23;19969;-86
2023/03/05 01:04:59;;;;;;;;;;;7.10;99.90;;;;;;6242137;23;19908;-86
2023/03/05 01:07:24;;;;;;;;;;;7.40;99.90;;;;;;6215766;23;20328;-86
2023/03/05 01:09:50;;;;;;;;;;;6.20;99.90;;;;;;6241173;23;19978;-86
2023/03/05 01:12:15;;;;;;;;;;;6.40;99.90;;;;;;6215414;23;19938;-85
2023/03/05 01:14:41;;;;;;;;;;;6.70;99.90;;;;;;6242075;23;19907;-86
2023/03/05 01:17:06;;;;;;;;;;;5.90;99.90;;;;;;6242900;23;20336;-86
2023/03/05 01:19:32;;;;;;;;;;;6.90;99.90;;;;;;6242115;23;19907;-86
2023/03/05 01:21:57;;;;;;;;;;;5.70;99.90;;;;;;6242307;23;19903;-86
2023/03/05 01:24:23;;;;;;;;;;;5.20;99.90;;;;;;6242077;23;19934;-86
2023/03/05 01:26:48;;;;;;;;;;;6.30;99.90;;;;;;6241934;23;19903;-86
2023/03/05 01:29:14;;;;;;;;;;;5.10;99.90;;;;;;6241692;23;19899;-86
2023/03/05 01:31:40;;;;;;;;;;;6.70;99.90;;;;;;6215376;23;20335;-85
2023/03/05 01:34:05;;;;;;;;;;;6.90;99.90;;;;;;6242971;23;19899;-86
2023/03/05 01:36:31;;;;;;;;;;;6.10;99.90;;;;;;6242173;23;19900;-85
2023/03/05 01:38:56;;;;;;;;;;;5.00;99.90;;;;;;6242133;23;19931;-86
2023/03/05 01:41:22;;;;;;;;;;;5.80;99.90;;;;;;6215091;23;19900;-86
2023/03/05 01:43:48;;;;;;;;;;;7.40;99.90;;;;;;6242076;23;20248;-85
2023/03/05 01:46:15;;;;;;;;;;;5.50;99.90;;;;;;6241421;23;19907;-85
2023/03/05 01:48:43;;;;;;;;;;;5.50;99.90;;;;;;6215458;23;20236;-86
2023/03/05 01:51:08;;;;;;;;;;;7.10;99.90;;;;;;6242791;23;19935;-85
2023/03/05 01:53:34;;;;;;;;;;;4.70;99.90;;;;;;6215139;23;20222;-86
2023/03/05 01:56:00;;;;;;;;;;;5.40;99.90;;;;;;6241790;23;19931;-85
2023/03/05 01:58:25;;;;;;;;;;;6.60;99.90;;;;;;6241203;23;19922;-86
2023/03/05 02:00:52;;;;;;;;;;;5.40;99.90;;;;;;6241324;23;19906;-86
2023/03/05 02:03:18;;;;;;;;;;;5.40;99.90;;;;;;6241745;23;19899;-86
2023/03/05 02:05:44;;;;;;;;;;;4.80;99.90;;;;;;6241659;23;20041;-85
2023/03/05 02:08:14;;;;;;;;;;;7.00;99.90;;;;;;6242893;23;19903;-86
2023/03/05 02:10:44;;;;;;;;;;;5.60;99.90;;;;;;6215642;23;19907;-86
2023/03/05 02:13:15;;;;;;;;;;;5.40;99.90;;;;;;6241245;23;19900;-85
2023/03/05 02:15:41;;;;;;;;;;;5.30;99.90;;;;;;6215780;23;19899;-85
2023/03/05 02:18:07;;;;;;;;;;;5.00;99.90;;;;;;6242519;23;20244;-85
2023/03/05 02:20:47;;;;;;;;;;;6.30;99.90;;;;;;6213440;23;19911;-86
2023/03/05 02:23:13;;;;;;;;;;;5.40;99.90;;;;;;6212122;23;19906;-87
2023/03/05 02:25:38;;;;;;;;;;;5.50;99.90;;;;;;6239178;23;19912;-87
2023/03/05 02:28:19;;;;;;;;;;;6.00;99.90;;;;;;6209988;23;19989;-86
2023/03/05 02:30:45;;;;;;;;;;;5.50;99.90;;;;;;6237561;23;19899;-86
2023/03/05 02:33:12;;;;;;;;;;;5.60;99.90;;;;;;6242566;23;19974;-86
2023/03/05 02:35:38;;;;;;;;;;;5.70;99.90;;;;;;6214872;23;19909;-86
2023/03/05 02:38:03;;;;;;;;;;;5.50;99.90;;;;;;6241556;23;19935;-85
2023/03/05 02:40:29;;;;;;;;;;;5.50;99.90;;;;;;6241333;23;20205;-85
2023/03/05 02:42:54;;;;;;;;;;;4.60;99.90;;;;;;6214194;23;20276;-85
2023/03/05 02:45:20;;;;;;;;;;;7.00;99.90;;;;;;6241345;23;19908;-85
2023/03/05 02:47:45;;;;;;;;;;;5.00;99.90;;;;;;6239404;23;19906;-85
2023/03/05 02:50:11;;;;;;;;;;;5.10;99.90;;;;;;6240103;23;19900;-85
2023/03/05 02:52:37;;;;;;;;;;;5.70;99.90;;;;;;6236726;23;20275;-86
2023/03/05 02:55:02;;;;;;;;;;;6.70;99.90;;;;;;6236376;23;19899;-85
2023/03/05 02:57:28;;;;;;;;;;;5.50;99.90;;;;;;6209335;23;19978;-85
2023/03/05 02:59:53;;;;;;;;;;;4.70;99.90;;;;;;6237116;23;19979;-85
2023/03/05 03:02:19;;;;;;;;;;;6.60;99.90;;;;;;6236377;23;19978;-85
2023/03/05 03:04:45;;;;;;;;;;;5.50;99.90;;;;;;6237096;23;19919;-86
2023/03/05 03:07:13;;;;;;;;;;;5.50;99.90;;;;;;6238886;23;19907;-86
2023/03/05 03:09:39;;;;;;;;;;;5.00;99.90;;;;;;6236546;23;20248;-85
2023/03/05 03:12:05;;;;;;;;;;;5.40;99.90;;;;;;6237470;23;19904;-85
2023/03/05 03:14:32;;;;;;;;;;;5.40;99.90;;;;;;6237227;23;20393;-85
2023/03/05 03:16:58;;;;;;;;;;;6.80;99.90;;;;;;6236477;23;20382;-85
2023/03/05 03:19:23;;;;;;;;;;;5.30;99.90;;;;;;6237555;23;19911;-85
2023/03/05 03:21:49;;;;;;;;;;;5.30;99.90;;;;;;6236854;23;19908;-85
2023/03/05 03:24:14;;;;;;;;;;;6.00;99.90;;;;;;6238732;23;19927;-85
2023/03/05 03:26:40;;;;;;;;;;;7.30;99.90;;;;;;6237466;23;19899;-86
2023/03/05 03:29:05;;;;;;;;;;;5.40;99.90;;;;;;6237347;23;20131;-85
2023/03/05 03:31:31;;;;;;;;;;;5.30;99.90;;;;;;6237293;23;19900;-85
2023/03/05 03:33:56;;;;;;;;;;;7.70;99.90;;;;;;6236666;23;20303;-85
2023/03/05 03:36:22;;;;;;;;;;;5.40;99.90;;;;;;6239894;23;19945;-84
2023/03/05 03:38:47;;;;;;;;;;;5.40;99.90;;;;;;6238177;23;20233;-84
2023/03/05 03:41:13;;;;;;;;;;;5.00;99.90;;;;;;6212318;23;19907;-85
2023/03/05 03:43:38;;;;;;;;;;;5.30;99.90;;;;;;6238580;23;19976;-85
2023/03/05 03:46:05;;;;;;;;;;;5.50;99.90;;;;;;6238362;23;19959;-85
2023/03/05 03:48:30;;;;;;;;;;;5.30;99.90;;;;;;6238585;23;19953;-85
2023/03/05 03:50:56;;;;;;;;;;;5.40;99.90;;;;;;6238369;23;19903;-86
2023/03/05 03:53:21;;;;;;;;;;;5.60;99.90;;;;;;6238350;23;19907;-85
2023/03/05 03:55:47;;;;;;;;;;;5.50;99.90;;;;;;6240627;23;19900;-85
2023/03/05 03:58:13;;;;;;;;;;;5.30;99.90;;;;;;6241214;23;19946;-85
2023/03/05 04:00:39;;;;;;;;;;;4.70;99.90;;;;;;6239809;23;19903;-85
2023/03/05 04:03:04;;;;;;;;;;;5.30;99.90;;;;;;6211301;23;19921;-86
2023/03/05 04:05:30;;;;;;;;;;;6.40;99.90;;;;;;6211216;23;20645;-86
2023/03/05 04:07:57;;;;;;;;;;;5.20;99.90;;;;;;6239328;23;19899;-85
2023/03/05 04:10:23;;;;;;;;;;;5.40;99.90;;;;;;6237839;23;19899;-86
2023/03/05 04:12:48;;;;;;;;;;;5.40;99.90;;;;;;6211976;23;19961;-85
2023/03/05 04:15:14;;;;;;;;;;;5.50;99.90;;;;;;6238989;23;19990;-85
2023/03/05 04:17:39;;;;;;;;;;;4.90;99.90;;;;;;6238051;23;20351;-86
2023/03/05 04:20:07;;;;;;;;;;;4.70;99.90;;;;;;6240076;23;20350;-84
2023/03/05 04:22:33;;;;;;;;;;;5.30;99.90;;;;;;6215064;23;19906;-85
2023/03/05 04:24:58;;;;;;;;;;;4.70;99.90;;;;;;6238926;23;19911;-85
2023/03/05 04:27:24;;;;;;;;;;;5.90;99.90;;;;;;6238311;23;20321;-86
2023/03/05 04:29:49;;;;;;;;;;;5.20;99.90;;;;;;6238383;23;19903;-86
2023/03/05 04:32:21;;;;;;;;;;;5.30;99.90;;;;;;6239458;23;19899;-85
2023/03/05 04:34:47;;;;;;;;;;;5.50;99.90;;;;;;6240418;23;19904;-85
2023/03/05 04:37:13;;;;;;;;;;;5.20;99.90;;;;;;6238682;23;19899;-85
2023/03/05 04:39:38;;;;;;;;;;;5.20;99.90;;;;;;6237708;23;20120;-85
2023/03/05 04:42:04;;;;;;;;;;;5.30;99.90;;;;;;6239301;23;19986;-86
2023/03/05 04:44:29;;;;;;;;;;;5.20;99.90;;;;;;6238770;23;19925;-84
2023/03/05 04:46:55;;;;;;;;;;;5.20;99.90;;;;;;6238103;23;19900;-85
2023/03/05 04:49:21;;;;;;;;;;;5.10;99.90;;;;;;6237182;23;19907;-87
2023/03/05 04:51:46;;;;;;;;;;;5.00;99.90;;;;;;6236495;23;20324;-85
2023/03/05 04:54:12;;;;;;;;;;;5.20;99.90;;;;;;6236588;23;20230;-84
2023/03/05 04:56:37;;;;;;;;;;;5.00;99.90;;;;;;6236813;23;19910;-88
2023/03/05 04:59:03;;;;;;;;;;;5.00;99.90;;;;;;6236945;23;19900;-84
2023/03/05 05:01:28;;;;;;;;;;;5.10;99.90;;;;;;6241361;23;19910;-85
2023/03/05 05:03:54;;;;;;;;;;;5.10;99.90;;;;;;6241454;23;19906;-84
2023/03/05 05:06:20;;;;;;;;;;;5.10;99.90;;;;;;6242209;23;19931;-84
2023/03/05 05:08:45;;;;;;;;;;;7.00;99.90;;;;;;6208234;23;19899;-86
2023/03/05 05:11:12;;;;;;;;;;;5.20;99.90;;;;;;6205815;23;19922;-84
2023/03/05 05:13:37;;;;;;;;;;;5.20;99.90;;;;;;6207791;23;19907;-85
2023/03/05 05:16:06;;;;;;;;;;;4.90;99.90;;;;;;6183510;23;19900;-85
2023/03/05 05:18:32;;;;;;;;;;;5.20;99.90;;;;;;6179624;23;19979;-85
2023/03/05 05:20:57;;;;;;;;;;;5.20;99.90;;;;;;6205992;23;19931;-85
2023/03/05 05:23:23;;;;;;;;;;;5.20;99.90;;;;;;6206933;23;19910;-85
2023/03/05 05:25:57;;;;;;;;;;;5.00;99.90;;;;;;6207928;23;19939;-85
2023/03/05 05:28:23;;;;;;;;;;;5.10;99.90;;;;;;6206664;23;19904;-86
2023/03/05 05:30:48;;;;;;;;;;;5.20;99.90;;;;;;6206225;23;19904;-87
2023/03/05 05:33:14;;;;;;;;;;;4.80;99.90;;;;;;6206501;23;19906;-86
2023/03/05 05:35:39;;;;;;;;;;;5.10;99.90;;;;;;6206769;23;19904;-85
2023/03/05 05:38:05;;;;;;;;;;;5.50;99.90;;;;;;6205727;23;19987;-87
2023/03/05 05:40:30;;;;;;;;;;;5.10;99.90;;;;;;6179555;23;20280;-88
2023/03/05 05:42:56;;;;;;;;;;;6.50;99.90;;;;;;6207472;23;19978;-86
2023/03/05 05:45:21;;;;;;;;;;;4.90;99.90;;;;;;6207966;23;20229;-84
2023/03/05 05:47:47;;;;;;;;;;;6.60;99.90;;;;;;6188497;23;20404;-88
2023/03/05 05:50:13;;;;;;;;;;;6.90;99.90;;;;;;6210418;23;19904;-85
2023/03/05 05:52:38;;;;;;;;;;;4.70;99.90;;;;;;6210774;23;19927;-86
2023/03/05 05:55:04;;;;;;;;;;;5.00;99.90;;;;;;6209286;23;20333;-84
2023/03/05 05:57:30;;;;;;;;;;;5.10;99.90;;;;;;6210929;23;19924;-84
2023/03/05 05:59:56;;;;;;;;;;;5.10;99.90;;;;;;6183580;23;20344;-87
2023/03/05 06:02:21;;;;;;;;;;;5.30;99.90;;;;;;6184850;23;19900;-85
2023/03/05 06:04:47;;;;;;;;;;;5.10;99.90;;;;;;6210916;23;19915;-85
2023/03/05 06:07:13;;;;;;;;;;;5.10;99.90;;;;;;6209491;23;19904;-86
2023/03/05 06:09:38;;;;;;;;;;;6.90;99.90;;;;;;6210654;23;19904;-85
2023/03/05 06:12:04;;;;;;;;;;;5.10;99.90;;;;;;6210614;23;20237;-85
2023/03/05 06:14:29;;;;;;;;;;;5.20;99.90;;;;;;6183802;23;19904;-85
2023/03/05 06:16:55;;;;;;;;;;;4.50;99.90;;;;;;6210665;23;19904;-85
2023/03/05 06:19:20;;;;;;;;;;;6.30;99.90;;;;;;6211400;23;20352;-86
2023/03/05 06:21:46;;;;;;;;;;;6.60;99.90;;;;;;6184215;23;20313;-85
2023/03/05 06:24:12;;;;;;;;;;;6.90;99.90;;;;;;6209878;23;19904;-85
2023/03/05 06:26:39;;;;;;;;;;;5.30;99.90;;;;;;6183352;23;19920;-85
2023/03/05 06:29:04;;;;;;;;;;;4.90;99.90;;;;;;6210640;23;19926;-86
2023/03/05 06:31:30;;;;;;;;;;;6.40;99.90;;;;;;6210381;23;19904;-85
2023/03/05 06:33:57;;;;;;;;;;;6.10;99.90;;;;;;6210423;23;19907;-86
2023/03/05 06:36:23;;;;;;;;;;;4.90;99.90;;;;;;6184491;23;19904;-86
2023/03/05 06:38:49;;;;;;;;;;;5.20;99.90;;;;;;6210989;23;20273;-86
2023/03/05 06:41:16;;;;;;;;;;;4.50;99.90;;;;;;6209961;23;19904;-86
2023/03/05 06:43:42;;;;;;;;;;;5.00;99.90;;;;;;6210466;23;19969;-86
2023/03/05 06:46:17;;;;;;;;;;;5.40;99.90;;;;;;6183611;23;19951;-86
2023/03/05 06:48:43;;;;;;;;;;;5.20;99.90;;;;;;6210207;23;19900;-86
2023/03/05 06:51:12;;;;;;;;;;;4.60;99.90;;;;;;6210435;23;19958;-86
2023/03/05 06:53:38;;;;;;;;;;;5.30;99.90;;;;;;6210429;23;19938;-85
2023/03/05 06:56:03;;;;;;;;;;;5.50;99.90;;;;;;6210290;23;19899;-85
2023/03/05 06:58:29;;;;;;;;;;;5.30;99.90;;;;;;6209902;23;19986;-86
2023/03/05 07:00:54;;;;;;;;;;;6.60;99.90;;;;;;6210083;23;19907;-87
2023/03/05 07:03:20;;;;;;;;;;;6.60;99.90;;;;;;6210978;23;20283;-86
2023/03/05 07:05:45;;;;;;;;;;;5.30;99.90;;;;;;6183465;23;19947;-87
2023/03/05 07:08:11;;;;;;;;;;;5.20;99.90;;;;;;6210522;23;19900;-87
2023/03/05 07:10:40;;;;;;;;;;;5.40;99.90;;;;;;6210415;23;20276;-87
2023/03/05 07:13:06;;;;;;;;;;;6.20;99.90;;;;;;6209801;23;19993;-86
2023/03/05 07:15:32;;;;;;;;;;;5.20;99.90;;;;;;6183035;23;20317;-86
2023/03/05 07:17:57;;;;;;;;;;;5.50;99.90;;;;;;6210367;23;19900;-86
2023/03/05 07:20:23;;;;;;;;;;;6.00;99.90;;;;;;6181626;23;19907;-87
2023/03/05 07:22:49;;;;;;;;;;;5.20;99.90;;;;;;6183676;23;19954;-88
2023/03/05 07:25:20;;;;;;;;;;;6.60;99.90;;;;;;6208200;23;19907;-86
2023/03/05 07:27:46;;;;;;;;;;;6.80;99.90;;;;;;6207000;23;19903;-86
2023/03/05 07:30:12;;;;;;;;;;;5.30;99.90;;;;;;6208153;23;19900;-87
2023/03/05 07:32:37;;;;;;;;;;;5.30;99.90;;;;;;6208179;23;19942;-86
2023/03/05 07:35:03;;;;;;;;;;;5.30;99.90;;;;;;6209297;23;19900;-86
2023/03/05 07:37:29;;;;;;;;;;;5.30;99.90;;;;;;6183337;23;20351;-86
2023/03/05 07:39:54;;;;;;;;;;;5.90;99.90;;;;;;6182511;23;19900;-86
2023/03/05 07:42:19;;;;;;;;;;;5.40;99.90;;;;;;6183815;23;19900;-86
2023/03/05 07:44:45;;;;;;;;;;;6.40;99.90;;;;;;6181052;23;19908;-86
2023/03/05 07:47:10;;;;;;;;;;;5.40;99.90;;;;;;6209836;23;20237;-86
2023/03/05 07:49:38;;;;;;;;;;;7.80;99.90;;;;;;6183932;23;19907;-85
2023/03/05 07:52:04;;;;;;;;;;;6.70;99.90;;;;;;6209982;23;19927;-84
2023/03/05 07:54:30;;;;;;;;;;;5.40;99.90;;;;;;6182876;23;19926;-84
2023/03/05 07:56:55;;;;;;;;;;;6.60;99.90;;;;;;6210004;23;20388;-84
2023/03/05 07:59:21;;;;;;;;;;;4.80;99.90;;;;;;6210358;23;19926;-84
2023/03/05 08:01:46;;;;;;;;;;;7.00;99.90;;;;;;6210123;23;20272;-84
2023/03/05 08:04:12;;;;;;;;;;;5.40;99.90;;;;;;6209821;23;19954;-85
2023/03/05 08:06:38;;;;;;;;;;;5.40;99.90;;;;;;6209917;23;19908;-85
2023/03/05 08:09:04;;;;;;;;;;;6.60;99.90;;;;;;6210005;23;20274;-84
2023/03/05 08:11:29;;;;;;;;;;;5.50;99.90;;;;;;6208245;23;19958;-83
2023/03/05 08:13:58;;;;;;;;;;;4.90;99.90;;;;;;6209933;23;19900;-86
2023/03/05 08:16:24;;;;;;;;;;;5.60;99.90;;;;;;6210670;23;19900;-85
2023/03/05 08:18:52;;;;;;;;;;;5.60;99.90;;;;;;6211161;23;19943;-86
2023/03/05 08:21:25;;;;;;;;;;;6.60;99.90;;;;;;6209621;23;19978;-86
2023/03/05 08:23:51;;;;;;;;;;;5.50;99.90;;;;;;6210302;23;19983;-87
2023/03/05 08:26:18;;;;;;;;;;;5.10;99.90;;;;;;6208482;23;20336;-86
2023/03/05 08:28:44;;;;;;;;;;;5.00;99.90;;;;;;6211214;23;20333;-88
2023/03/05 08:31:10;;;;;;;;;;;6.80;99.90;;;;;;6211601;23;19946;-87
2023/03/05 08:33:36;;;;;;;;;;;5.70;99.90;;;;;;6211824;23;19943;-86
2023/03/05 08:36:02;;;;;;;;;;;5.80;99.90;;;;;;6211183;23;20245;-86
2023/03/05 08:38:27;;;;;;;;;;;5.80;99.90;;;;;;6210773;23;19930;-86
2023/03/05 08:40:53;;;;;;;;;;;5.80;99.90;;;;;;6185453;23;19906;-86
2023/03/05 08:43:18;;;;;;;;;;;5.70;99.90;;;;;;6211180;23;19903;-86
2023/03/05 08:45:46;;;;;;;;;;;6.00;99.90;;;;;;6211511;23;19914;-86
2023/03/05 08:48:11;;;;;;;;;;;5.80;99.90;;;;;;6211505;23;19900;-86
2023/03/05 08:50:37;;;;;;;;;;;5.80;99.90;;;;;;6211492;23;19900;-87
2023/03/05 08:53:03;;;;;;;;;;;6.90;99.90;;;;;;6211525;23;20321;-86
2023/03/05 08:55:28;;;;;;;;;;;6.60;99.90;;;;;;6211058;23;19983;-86
2023/03/05 08:57:54;;;;;;;;;;;7.30;99.90;;;;;;6211558;23;20241;-86
2023/03/05 09:00:19;;;;;;;;;;;5.40;99.90;;;;;;6211203;23;19973;-86
2023/03/05 09:02:45;;;;;;;;;;;6.00;99.90;;;;;;6211376;23;19969;-87
2023/03/05 09:05:10;;;;;;;;;;;6.10;99.90;;;;;;6211256;23;19986;-87
2023/03/05 09:07:36;;;;;;;;;;;5.80;99.90;;;;;;6211413;23;19904;-86
2023/03/05 09:10:02;;;;;;;;;;;7.20;99.90;;;;;;6184641;23;19982;-86
2023/03/05 09:12:28;;;;;;;;;;;6.00;99.90;;;;;;6210308;23;19900;-86
2023/03/05 09:14:54;;;;;;;;;;;7.40;99.90;;;;;;6212617;23;19927;-86
2023/03/05 09:17:19;;;;;;;;;;;7.30;99.90;;;;;;6210794;23;20380;-86
2023/03/05 09:19:45;;;;;;;;;;;6.10;99.90;;;;;;6211234;23;19908;-86
2023/03/05 09:22:10;;;;;;;;;;;5.60;99.90;;;;;;6184603;23;19906;-86
2023/03/05 09:24:36;;;;;;;;;;;5.20;99.90;;;;;;6210571;23;19904;-86
2023/03/05 09:27:01;;;;;;;;;;;6.10;99.90;;;;;;6210731;23;19900;-86
2023/03/05 09:29:28;;;;;;;;;;;6.10;99.90;;;;;;6212044;23;20333;-86
2023/03/05 09:31:54;;;;;;;;;;;6.40;99.90;;;;;;6211590;23;19907;-86
2023/03/05 09:34:20;;;;;;;;;;;5.50;99.90;;;;;;6210990;23;20241;-85
2023/03/05 09:36:45;;;;;;;;;;;6.30;99.90;;;;;;6211205;23;20309;-86
2023/03/05 09:39:11;;;;;;;;;;;6.40;99.90;;;;;;6210484;23;19906;-85
2023/03/05 09:41:52;;;;;;;;;;;7.50;99.90;;;;;;6210825;23;19903;-86
2023/03/05 09:44:36;;;;;;;;;;;6.30;99.90;;;;;;6210636;23;20329;-85
2023/03/05 09:47:15;;;;;;;;;;;6.30;99.90;;;;;;6210628;23;19914;-85
2023/03/05 09:49:56;;;;;;;;;;;6.30;99.90;;;;;;6184321;23;19978;-85
2023/03/05 09:52:24;;;;;;;;;;;6.50;99.90;;;;;;6210605;23;20309;-85
2023/03/05 09:54:54;;;;;;;;;;;5.80;99.90;;;;;;6210682;23;20288;-85
2023/03/05 09:57:22;;;;;;;;;;;6.60;99.90;;;;;;6210360;23;19904;-85
2023/03/05 10:00:20;;;;;;;;;;;6.60;99.90;;;;;;6209959;23;20292;-85
2023/03/05 10:02:52;;;;;;;;;;;6.40;99.90;;;;;;6129327;23;19900;-85
2023/03/05 10:05:27;;;;;;;;;;;6.40;99.90;;;;;;6209896;23;19903;-86
2023/03/05 10:07:56;;;;;;;;;;;6.50;99.90;;;;;;6210624;23;20249;-86
2023/03/05 10:10:24;;;;;;;;;;;6.50;99.90;;;;;;6210130;23;20317;-88
2023/03/05 10:12:51;;;;;;;;;;;6.60;99.90;;;;;;6210760;23;19950;-87
2023/03/05 10:15:24;;;;;;;;;;;6.50;99.90;;;;;;6182468;23;19954;-85
2023/03/05 10:18:08;;;;;;;;;;;6.50;99.90;;;;;;6210418;23;20016;-86
2023/03/05 10:20:40;;;;;;;;;;;6.50;99.90;;;;;;6210058;23;19955;-86
2023/03/05 10:23:23;;;;;;;;;;;6.50;99.90;;;;;;6209169;23;19908;-86
2023/03/05 10:25:49;;;;;;;;;;;6.50;99.90;;;;;;6210640;23;20348;-88
2023/03/05 10:28:18;;;;;;;;;;;7.60;99.90;;;;;;6210209;23;19900;-89
2023/03/05 10:30:44;;;;;;;;;;;7.00;99.90;;;;;;6183310;23;20237;-89
2023/03/05 10:33:10;;;;;;;;;;;6.80;99.90;;;;;;6209850;23;20415;-89
2023/03/05 10:35:51;;;;;;;;;;;7.00;99.90;;;;;;6211325;23;19982;-90
2023/03/05 10:38:16;;;;;;;;;;;6.50;99.90;;;;;;6184157;23;19900;-88
2023/03/05 10:40:46;;;;;;;;;;;6.60;99.90;;;;;;6183763;23;19900;-88
2023/03/05 10:43:39;;;;;;;;;;;6.50;99.90;;;;;;6210170;23;20391;-88
2023/03/05 10:46:05;;;;;;;;;;;6.70;99.90;;;;;;6209413;23;19994;-88
2023/03/05 10:48:34;;;;;;;;;;;7.50;99.90;;;;;;6182865;23;19954;-88
2023/03/05 10:51:20;;;;;;;;;;;8.20;99.90;;;;;;6211079;23;19995;-88
2023/03/05 10:54:00;;;;;;;;;;;8.10;99.90;;;;;;6208958;23;19900;-87
2023/03/05 10:56:27;;;;;;;;;;;6.90;99.90;;;;;;6208560;23;19907;-88
2023/03/05 10:58:53;;;;;;;;;;;7.90;99.90;;;;;;6209354;23;20618;-87
2023/03/05 11:01:20;;;;;;;;;;;5.90;99.90;;;;;;6209541;23;19899;-87
2023/03/05 11:03:52;;;;;;;;;;;7.20;99.90;;;;;;6210197;23;19966;-87
2023/03/05 11:06:36;;;;;;;;;;;6.70;99.90;;;;;;6182878;23;19908;-88
2023/03/05 11:09:14;;;;;;;;;;;6.70;99.90;;;;;;6184481;23;19926;-87
2023/03/05 11:11:40;;;;;;;;;;;6.50;99.90;;;;;;6209919;23;19904;-87
2023/03/05 11:14:20;;;;;;;;;;;6.00;99.90;;;;;;6209791;23;20244;-88
2023/03/05 11:16:47;;;;;;;;;;;8.00;99.90;;;;;;6210350;23;19900;-86
2023/03/05 11:19:12;;;;;;;;;;;7.70;99.90;;;;;;6182779;23;20321;-88
2023/03/05 11:21:38;;;;;;;;;;;6.60;99.90;;;;;;6182984;23;19987;-87
2023/03/05 11:24:17;;;;;;;;;;;7.40;99.90;;;;;;6209815;23;19939;-88
2023/03/05 11:26:53;;;;;;;;;;;6.50;99.90;;;;;;6209633;23;20042;-87
2023/03/05 11:29:26;;;;;;;;;;;6.70;99.90;;;;;;6209753;23;20319;-87
2023/03/05 11:31:52;;;;;;;;;;;6.70;99.90;;;;;;6184132;23;19900;-88
2023/03/05 11:34:17;;;;;;;;;;;7.00;99.90;;;;;;6209208;23;19919;-88
2023/03/05 11:36:43;;;;;;;;;;;7.70;99.90;;;;;;6177991;23;19923;-87
2023/03/05 11:39:10;;;;;;;;;;;6.70;99.90;;;;;;6207505;23;19907;-88
2023/03/05 11:41:41;;;;;;;;;;;6.70;99.90;;;;;;6180668;23;19926;-88
2023/03/05 11:44:13;;;;;;;;;;;6.90;99.90;;;;;;6207253;23;19962;-90
2023/03/05 11:46:43;;;;;;;;;;;7.10;99.90;;;;;;6206989;23;19907;-88
2023/03/05 11:49:11;;;;;;;;;;;7.70;99.90;;;;;;6208246;23;19907;-88
2023/03/05 11:51:41;;;;;;;;;;;8.90;99.90;;;;;;6181661;23;19903;-89
2023/03/05 11:54:11;;;;;;;;;;;7.90;99.90;;;;;;6182412;23;19903;-88
2023/03/05 11:56:38;;;;;;;;;;;7.70;99.90;;;;;;6209507;23;19900;-87
2023/03/05 11:59:06;;;;;;;;;;;7.20;99.90;;;;;;6175774;23;19973;-87
2023/03/05 12:01:34;;;;;;;;;;;7.50;99.90;;;;;;6210845;23;19900;-88
2023/03/05 12:04:03;;;;;;;;;;;7.40;99.90;;;;;;6212151;23;19986;-89
2023/03/05 12:06:29;;;;;;;;;;;7.30;99.90;;;;;;6185747;23;19915;-89
2023/03/05 12:08:56;;;;;;;;;;;7.40;99.90;;;;;;6209214;23;19904;-88
2023/03/05 12:11:26;;;;;;;;;;;8.00;99.90;;;;;;6210961;23;19907;-89
2023/03/05 12:14:05;;;;;;;;;;;7.00;99.90;;;;;;6183694;23;19900;-88
2023/03/05 12:16:52;;;;;;;;;;;7.40;99.90;;;;;;6210598;23;20248;-88
2023/03/05 12:19:27;;;;;;;;;;;6.30;99.90;;;;;;6207984;23;19930;-88
2023/03/05 12:21:53;;;;;;;;;;;7.50;99.90;;;;;;6208455;23;20187;-87
2023/03/05 12:24:22;;;;;;;;;;;7.00;99.90;;;;;;6178602;23;19907;-88
2023/03/05 12:27:03;;;;;;;;;;;7.10;99.90;;;;;;6210127;23;19940;-89
2023/03/05 12:29:32;;;;;;;;;;;7.20;99.90;;;;;;6183797;23;19923;-89
2023/03/05 12:31:59;;;;;;;;;;;7.60;99.90;;;;;;6183901;23;19934;-89
2023/03/05 12:34:37;;;;;;;;;;;8.50;99.90;;;;;;6209547;23;19900;-89
2023/03/05 12:37:08;;;;;;;;;;;6.80;99.90;;;;;;6211065;23;19899;-87
2023/03/05 12:39:43;;;;;;;;;;;5.40;99.90;;;;;;6184779;23;19900;-91
2023/03/05 12:42:31;;;;;;;;;;;7.80;99.90;;;;;;6185180;23;19907;-90
2023/03/05 12:45:22;;;;;;;;;;;7.10;99.90;;;;;;6115645;23;19904;-89
2023/03/05 12:47:53;;;;;;;;;;;7.20;99.90;;;;;;6184831;23;20346;-88
2023/03/05 12:50:25;;;;;;;;;;;7.00;99.90;;;;;;6211119;23;19900;-89
2023/03/05 12:52:51;;;;;;;;;;;7.00;99.90;;;;;;6184512;23;19934;-89
2023/03/05 12:55:19;;;;;;;;;;;7.30;99.90;;;;;;6210807;23;19966;-90
2023/03/05 12:57:45;;;;;;;;;;;5.80;99.90;;;;;;6185018;23;19900;-89
2023/03/05 13:00:12;;;;;;;;;;;8.10;99.90;;;;;;6210989;23;19998;-89
2023/03/05 13:02:39;;;;;;;;;;;7.00;99.90;;;;;;6183778;23;19911;-91
2023/03/05 13:05:23;;;;;;;;;;;8.90;99.90;;;;;;6183393;23;19911;-89
2023/03/05 13:07:49;;;;;;;;;;;7.30;99.90;;;;;;6209304;23;19928;-89
2023/03/05 13:10:22;;;;;;;;;;;8.10;99.90;;;;;;6210593;23;19907;-89
2023/03/05 13:12:51;;;;;;;;;;;7.20;99.90;;;;;;6210590;23;19900;-90
2023/03/05 13:15:17;;;;;;;;;;;7.00;99.90;;;;;;6183879;23;19967;-88
2023/03/05 13:17:59;;;;;;;;;;;7.00;99.90;;;;;;6210705;23;20340;-88
2023/03/05 13:20:34;;;;;;;;;;;7.00;99.90;;;;;;6209583;23;19915;-90
2023/03/05 13:23:04;;;;;;;;;;;7.00;99.90;;;;;;6211930;23;19904;-90
2023/03/05 13:25:30;;;;;;;;;;;6.90;99.90;;;;;;6184740;23;19926;-88
2023/03/05 13:28:03;;;;;;;;;;;7.10;99.90;;;;;;6184186;23;19904;-89
2023/03/05 13:30:28;;;;;;;;;;;7.00;99.90;;;;;;6210577;23;19900;-89
2023/03/05 13:32:58;;;;;;;;;;;7.10;99.90;;;;;;6183914;23;19953;-89
2023/03/05 13:35:23;;;;;;;;;;;7.40;99.90;;;;;;6210660;23;20327;-89
2023/03/05 13:37:49;;;;;;;;;;;8.20;99.90;;;;;;6184410;23;19904;-89
2023/03/05 13:40:22;;;;;;;;;;;8.00;99.90;;;;;;6210573;23;19899;-89
2023/03/05 13:42:48;;;;;;;;;;;7.50;99.90;;;;;;6183805;23;19903;-88
2023/03/05 13:45:22;;;;;;;;;;;7.30;99.90;;;;;;6208873;23;19950;-88
2023/03/05 13:47:52;;;;;;;;;;;7.50;99.90;;;;;;6209609;23;19904;-89
2023/03/05 13:50:32;;;;;;;;;;;7.40;99.90;;;;;;6183446;23;19904;-88
2023/03/05 13:53:16;;;;;;;;;;;7.30;99.90;;;;;;6183172;23;19903;-88
2023/03/05 13:55:45;;;;;;;;;;;7.50;99.90;;;;;;6209176;23;19906;-89
2023/03/05 13:58:51;;;;;;;;;;;7.40;99.90;;;;;;6181909;23;20004;-88
2023/03/05 14:01:16;;;;;;;;;;;7.40;99.90;;;;;;6109440;23;20233;-88
2023/03/05 14:03:42;;;;;;;;;;;8.00;99.90;;;;;;6209302;23;19900;-86
2023/03/05 14:06:09;;;;;;;;;;;7.90;99.90;;;;;;6182740;23;19958;-88
2023/03/05 14:08:35;;;;;;;;;;;8.40;99.90;;;;;;6209862;23;19903;-90
2023/03/05 14:11:15;;;;;;;;;;;8.50;99.90;;;;;;6183748;23;19935;-89
2023/03/05 14:13:44;;;;;;;;;;;8.90;99.90;;;;;;6182525;23;19911;-90
2023/03/05 14:16:23;;;;;;;;;;;9.40;99.90;;;;;;6209078;23;19906;-87
2023/03/05 14:19:00;;;;;;;;;;;8.50;99.90;;;;;;6181931;23;19983;-86
2023/03/05 14:21:40;;;;;;;;;;;8.50;99.90;;;;;;6208622;23;20134;-86
2023/03/05 14:24:13;;;;;;;;;;;8.50;99.90;;;;;;6182988;23;19907;-87
2023/03/05 14:26:46;;;;;;;;;;;8.60;99.90;;;;;;6182583;23;19907;-87
2023/03/05 14:29:16;;;;;;;;;;;8.70;99.90;;;;;;6210366;23;19900;-91
2023/03/05 14:31:47;;;;;;;;;;;10.40;99.90;;;;;;6184067;23;19904;-89
2023/03/05 14:34:19;;;;;;;;;;;8.30;99.90;;;;;;6183885;23;19979;-88
2023/03/05 14:36:47;;;;;;;;;;;8.10;99.90;;;;;;6183919;23;19942;-88